Time;durP1;ratioP1;P1;durP2;ratioP2;P2;SDS_P1;SDS_P2;PMS_P1;PMS_P2;Temp;Humidity;BMP_temperature;BMP_pressure;BME280_temperature;BME280_humidity;BME280_pressure;Samples;Min_cycle;Max_cycle;Signal;HPM_P1;HPM_P2
2022/05/04 00:01:11;;;;;;;11.00;7.05;;;;;;;;;;10427620;28;20417;-73
2022/05/04 00:06:11;;;;;;;13.60;9.02;;;;;;;;;;10444236;28;20108;-74
2022/05/04 00:11:11;;;;;;;12.45;7.38;;;;;;;;;;10444382;28;20412;-71
2022/05/04 00:16:12;;;;;;;9.48;7.10;;;;;;;;;;10427295;28;20028;-74
2022/05/04 00:21:12;;;;;;;10.20;5.40;;;;;;;;;;10427362;28;20551;-69
2022/05/04 00:26:12;;;;;;;9.10;6.47;;;;;;;;;;10445322;28;20024;-71
2022/05/04 00:31:12;;;;;;;8.17;4.57;;;;;;;;;;10442799;28;20032;-71
2022/05/04 00:36:13;;;;;;;8.90;5.57;;;;;;;;;;10443661;28;20090;-70
2022/05/04 00:41:13;;;;;;;8.18;5.28;;;;;;;;;;10427343;28;20024;-74
2022/05/04 00:46:13;;;;;;;7.22;5.03;;;;;;;;;;10443550;28;20032;-70
2022/05/04 00:51:14;;;;;;;6.50;4.30;;;;;;;;;;10444813;28;20028;-73
2022/05/04 00:56:15;;;;;;;8.80;5.32;;;;;;;;;;10426836;28;20017;-73
2022/05/04 01:01:15;;;;;;;7.75;4.95;;;;;;;;;;10426623;28;20120;-76
2022/05/04 01:06:16;;;;;;;13.18;10.20;;;;;;;;;;10426394;28;20013;-74
2022/05/04 01:11:17;;;;;;;9.57;6.72;;;;;;;;;;10425985;28;20078;-78
2022/05/04 01:16:17;;;;;;;8.27;6.30;;;;;;;;;;10426648;28;20378;-73
2022/05/04 01:21:17;;;;;;;13.35;6.40;;;;;;;;;;10443426;28;20070;-68
2022/05/04 01:26:18;;;;;;;6.28;5.50;;;;;;;;;;10409812;28;20056;-77
2022/05/04 01:31:18;;;;;;;8.93;5.77;;;;;;;;;;10426260;28;20021;-71
2022/05/04 01:36:18;;;;;;;6.07;4.85;;;;;;;;;;10443524;28;20271;-77
2022/05/04 01:46:38;;;;;;;7.90;5.25;;;;;;;;;;10409848;28;20248;-69
2022/05/04 01:51:38;;;;;;;9.90;4.70;;;;;;;;;;10375681;28;20026;-69
2022/05/04 01:56:38;;;;;;;11.57;6.03;;;;;;;;;;10392166;28;20558;-70
2022/05/04 02:01:39;;;;;;;11.90;6.93;;;;;;;;;;10407970;28;20021;-69
2022/05/04 02:06:39;;;;;;;12.07;6.68;;;;;;;;;;10375085;28;20036;-74
2022/05/04 02:11:39;;;;;;;10.88;6.32;;;;;;;;;;10406754;28;20020;-76
2022/05/04 02:16:40;;;;;;;8.90;6.40;;;;;;;;;;10448785;28;20025;-70
2022/05/04 02:21:40;;;;;;;9.50;5.20;;;;;;;;;;10448190;28;20395;-74
2022/05/04 02:26:40;;;;;;;11.88;5.80;;;;;;;;;;10448364;28;20416;-70
2022/05/04 02:31:40;;;;;;;8.48;6.28;;;;;;;;;;10448324;28;20024;-74
2022/05/04 02:42:00;;;;;;;9.80;6.22;;;;;;;;;;10449330;28;20507;-71
2022/05/04 02:47:00;;;;;;;11.13;5.13;;;;;;;;;;10431281;28;20116;-70
2022/05/04 02:52:00;;;;;;;7.05;5.25;;;;;;;;;;10430983;28;20053;-69
2022/05/04 02:57:00;;;;;;;6.03;4.50;;;;;;;;;;10446346;28;20024;-70
2022/05/04 03:07:20;;;;;;;;;;;;;;;;;;10448933;28;20021;-74
2022/05/04 03:12:20;;;;;;;6.93;4.85;;;;;;;;;;10446397;28;19913;-73
2022/05/04 03:17:21;;;;;;;10.60;6.20;;;;;;;;;;10446075;28;20480;-71
2022/05/04 03:22:21;;;;;;;5.65;4.55;;;;;;;;;;10428974;28;20053;-70
2022/05/04 03:27:21;;;;;;;4.82;4.07;;;;;;;;;;10446132;28;20107;-72
2022/05/04 03:32:21;;;;;;;6.60;4.40;;;;;;;;;;10445783;28;20066;-72
2022/05/04 03:37:22;;;;;;;8.68;5.38;;;;;;;;;;10446612;28;20260;-69
2022/05/04 03:42:22;;;;;;;9.93;5.80;;;;;;;;;;10446317;28;20021;-74
2022/05/04 03:47:22;;;;;;;8.82;5.28;;;;;;;;;;10444789;28;20382;-72
2022/05/04 03:52:23;;;;;;;17.55;5.15;;;;;;;;;;10444573;28;20022;-71
2022/05/04 03:57:23;;;;;;;10.17;5.90;;;;;;;;;;10444585;28;20447;-76
2022/05/04 04:02:23;;;;;;;14.80;5.75;;;;;;;;;;10445887;28;20082;-70
2022/05/04 04:07:23;;;;;;;6.88;5.03;;;;;;;;;;10444240;28;20417;-78
2022/05/04 04:12:24;;;;;;;8.63;4.77;;;;;;;;;;10427220;28;20029;-71
2022/05/04 04:17:24;;;;;;;7.25;4.65;;;;;;;;;;10445270;28;20029;-71
2022/05/04 04:22:26;;;;;;;6.13;4.63;;;;;;;;;;10444423;28;20061;-74
2022/05/04 04:27:27;;;;;;;7.60;5.05;;;;;;;;;;10443813;28;20024;-71
2022/05/04 04:32:27;;;;;;;8.02;4.78;;;;;;;;;;10444832;28;20021;-70
2022/05/04 04:37:27;;;;;;;9.25;6.25;;;;;;;;;;10426166;28;20021;-71
2022/05/04 04:42:27;;;;;;;10.75;7.38;;;;;;;;;;10401820;28;20511;-70
2022/05/04 04:47:29;;;;;;;13.50;8.13;;;;;;;;;;10443958;28;20419;-77
2022/05/04 04:52:29;;;;;;;7.95;5.82;;;;;;;;;;10425890;28;20108;-76
2022/05/04 04:57:29;;;;;;;10.85;6.47;;;;;;;;;;10425758;28;20020;-75
2022/05/04 05:02:30;;;;;;;14.10;6.55;;;;;;;;;;10425715;28;20020;-72
2022/05/04 05:07:30;;;;;;;12.40;7.38;;;;;;;;;;10443113;28;20104;-70
2022/05/04 05:12:31;;;;;;;8.77;5.82;;;;;;;;;;10443494;28;20512;-76
2022/05/04 05:17:31;;;;;;;12.93;7.13;;;;;;;;;;10444907;28;20435;-71
2022/05/04 05:22:32;;;;;;;7.88;3.95;;;;;;;;;;10416813;28;20060;-76
2022/05/04 05:27:32;;;;;;;8.32;4.68;;;;;;;;;;10449869;28;20024;-70
2022/05/04 05:32:32;;;;;;;6.80;3.83;;;;;;;;;;10449788;28;20505;-74
2022/05/04 05:37:33;;;;;;;9.98;3.92;;;;;;;;;;10449901;28;20027;-71
2022/05/04 05:42:34;;;;;;;9.65;6.63;;;;;;;;;;10450555;28;20078;-69
2022/05/04 05:47:35;;;;;;;13.98;8.55;;;;;;;;;;10449801;28;20071;-70
2022/05/04 05:52:35;;;;;;;21.95;9.75;;;;;;;;;;10448788;28;20040;-70
2022/05/04 05:57:35;;;;;;;17.43;8.70;;;;;;;;;;10448628;28;20017;-69
2022/05/04 06:02:35;;;;;;;11.07;7.20;;;;;;;;;;10449079;28;20029;-78
2022/05/04 06:07:36;;;;;;;24.30;7.07;;;;;;;;;;10448860;28;20028;-78
2022/05/04 06:12:38;;;;;;;15.00;6.85;;;;;;;;;;10414875;28;20111;-72
2022/05/04 06:17:39;;;;;;;11.18;6.20;;;;;;;;;;10448356;28;20104;-70
2022/05/04 06:22:39;;;;;;;17.13;6.78;;;;;;;;;;10448128;28;20500;-74
2022/05/04 06:27:39;;;;;;;13.97;6.83;;;;;;;;;;10446654;28;20031;-72
2022/05/04 06:37:58;;;;;;;13.30;7.40;;;;;;;;;;10449345;28;20036;-71
2022/05/04 06:42:59;;;;;;;20.55;9.23;;;;;;;;;;10447503;28;20024;-69
2022/05/04 06:47:59;;;;;;;14.20;6.57;;;;;;;;;;10446588;28;20029;-75
2022/05/04 06:53:00;;;;;;;11.45;5.72;;;;;;;;;;10446896;28;20021;-71
2022/05/04 06:58:00;;;;;;;18.40;6.60;;;;;;;;;;10447712;28;20568;-74
2022/05/04 07:03:00;;;;;;;15.37;6.50;;;;;;;;;;10446135;28;20562;-72
2022/05/04 07:08:01;;;;;;;12.37;6.93;;;;;;;;;;10446587;28;20480;-70
2022/05/04 07:13:01;;;;;;;20.13;7.73;;;;;;;;;;10429859;28;20021;-72
2022/05/04 07:18:01;;;;;;;18.97;7.83;;;;;;;;;;10446075;28;20518;-70
2022/05/04 07:23:02;;;;;;;16.65;7.15;;;;;;;;;;10446638;28;20061;-70
2022/05/04 07:28:02;;;;;;;19.48;7.53;;;;;;;;;;10445990;28;20083;-75
2022/05/04 07:33:03;;;;;;;20.73;8.10;;;;;;;;;;10447120;28;20063;-78
2022/05/04 07:38:03;;;;;;;15.53;8.50;;;;;;;;;;10427452;28;20017;-74
2022/05/04 07:43:03;;;;;;;15.32;8.27;;;;;;;;;;10446141;28;20580;-71
2022/05/04 07:48:04;;;;;;;18.93;8.37;;;;;;;;;;10427941;28;20039;-70
2022/05/04 07:53:05;;;;;;;13.00;7.90;;;;;;;;;;10444480;28;20032;-74
2022/05/04 07:58:05;;;;;;;17.10;9.00;;;;;;;;;;10428267;28;20082;-70
2022/05/04 08:08:25;;;;;;;32.85;9.38;;;;;;;;;;10446549;28;20025;-74
2022/05/04 08:13:25;;;;;;;19.00;8.35;;;;;;;;;;10443545;28;20029;-71
2022/05/04 08:18:26;;;;;;;12.65;5.75;;;;;;;;;;10443726;28;20025;-70
2022/05/04 08:23:26;;;;;;;13.90;5.72;;;;;;;;;;10426846;28;20053;-76
2022/05/04 08:28:26;;;;;;;7.35;4.72;;;;;;;;;;10443294;28;20107;-71
2022/05/04 08:33:28;;;;;;;7.68;4.72;;;;;;;;;;10426760;28;20079;-76
2022/05/04 08:38:29;;;;;;;10.18;4.30;;;;;;;;;;10443855;28;20064;-71
2022/05/04 08:43:31;;;;;;;9.30;3.73;;;;;;;;;;10426368;28;20079;-72
2022/05/04 08:48:32;;;;;;;7.85;3.58;;;;;;;;;;10426336;28;20108;-70
2022/05/04 08:53:33;;;;;;;8.05;3.17;;;;;;;;;;10431080;28;20027;-73
2022/05/04 08:58:39;;;;;;;7.00;2.85;;;;;;;;;;10434395;28;20029;-70
2022/05/04 09:03:40;;;;;;;6.25;3.03;;;;;;;;;;10452458;28;20455;-71
2022/05/04 09:09:03;;;;;;;9.02;2.42;;;;;;;;;;10452622;28;20032;-73
2022/05/04 09:14:07;;;;;;;2.35;1.75;;;;;;;;;;10434330;28;20031;-70
2022/05/04 09:19:09;;;;;;;5.68;1.88;;;;;;;;;;10451951;28;20540;-74
2022/05/04 09:24:09;;;;;;;9.73;1.60;;;;;;;;;;10451390;28;20118;-70
2022/05/04 09:29:13;;;;;;;2.87;1.80;;;;;;;;;;10450023;28;20086;-73
2022/05/04 09:34:14;;;;;;;2.58;1.33;;;;;;;;;;10450788;28;20031;-69
2022/05/04 09:44:54;;;;;;;11.55;3.65;;;;;;;;;;10450919;28;20017;-69
2022/05/04 09:50:00;;;;;;;1.60;1.15;;;;;;;;;;10432518;28;20119;-70
2022/05/04 09:55:00;;;;;;;;;;;;;;;;;;10449596;28;20024;-70
2022/05/04 10:00:00;;;;;;;4.63;1.13;;;;;;;;;;10448865;28;19909;-70
2022/05/04 10:05:01;;;;;;;2.40;1.20;;;;;;;;;;10414865;28;20033;-76
2022/05/04 10:10:01;;;;;;;4.63;1.50;;;;;;;;;;10448787;28;20028;-77
2022/05/04 10:15:02;;;;;;;3.85;1.80;;;;;;;;;;10432024;28;20036;-71
2022/05/04 10:20:09;;;;;;;1.40;1.30;;;;;;;;;;10447712;28;20056;-71
2022/05/04 10:25:11;;;;;;;4.85;1.10;;;;;;;;;;10431287;28;20440;-75
2022/05/04 10:30:30;;;;;;;1.67;1.33;;;;;;;;;;10430789;28;20071;-70
2022/05/04 10:35:32;;;;;;;5.90;1.45;;;;;;;;;;10448724;28;20618;-70
2022/05/04 10:40:37;;;;;;;2.63;1.23;;;;;;;;;;10415003;28;20025;-73
2022/05/04 10:45:38;;;;;;;2.40;1.13;;;;;;;;;;10430494;28;20082;-68
2022/05/04 10:50:52;;;;;;;4.18;1.35;;;;;;;;;;10430551;28;20036;-68
2022/05/04 10:55:54;;;;;;;2.35;1.55;;;;;;;;;;10430023;28;20401;-71
2022/05/04 11:01:01;;;;;;;3.90;1.30;;;;;;;;;;10429773;28;20517;-70
2022/05/04 11:06:03;;;;;;;1.52;1.13;;;;;;;;;;10447716;28;20052;-71
2022/05/04 11:11:04;;;;;;;6.30;1.88;;;;;;;;;;10446289;28;20024;-70
2022/05/04 11:16:04;;;;;;;2.72;1.67;;;;;;;;;;10427616;28;20021;-70
2022/05/04 11:21:09;;;;;;;7.43;1.80;;;;;;;;;;10412465;28;20049;-73
2022/05/04 11:26:16;;;;;;;3.22;1.90;;;;;;;;;;10429163;28;20715;-70
2022/05/04 11:31:17;;;;;;;7.45;2.03;;;;;;;;;;10428584;28;20461;-70
2022/05/04 11:36:19;;;;;;;3.58;1.73;;;;;;;;;;10428579;28;20056;-71
2022/05/04 11:41:20;;;;;;;2.97;2.00;;;;;;;;;;10444698;28;20539;-74
2022/05/04 11:46:21;;;;;;;2.95;1.60;;;;;;;;;;10446372;28;20024;-70
2022/05/04 11:51:21;;;;;;;2.92;1.77;;;;;;;;;;10444719;28;20152;-76
2022/05/04 11:56:22;;;;;;;5.97;1.90;;;;;;;;;;10445230;28;20028;-77
2022/05/04 12:01:22;;;;;;;6.20;1.73;;;;;;;;;;10427339;28;20033;-70
2022/05/04 12:06:23;;;;;;;6.05;2.22;;;;;;;;;;10428190;28;20025;-70
2022/05/04 12:11:23;;;;;;;2.47;1.70;;;;;;;;;;10438874;28;20044;-70
2022/05/04 12:16:24;;;;;;;2.45;1.65;;;;;;;;;;10433468;28;20404;-70
2022/05/04 12:21:25;;;;;;;6.20;1.63;;;;;;;;;;10426556;28;20048;-70
2022/05/04 12:26:25;;;;;;;3.08;1.50;;;;;;;;;;10426319;28;20385;-70
2022/05/04 12:36:45;;;;;;;2.15;1.90;;;;;;;;;;10444700;28;20069;-71
2022/05/04 12:41:46;;;;;;;2.03;1.33;;;;;;;;;;10425372;28;20361;-75
2022/05/04 12:46:50;;;;;;;3.35;1.10;;;;;;;;;;10442428;28;20341;-74
2022/05/04 12:51:51;;;;;;;6.88;1.80;;;;;;;;;;10427054;28;20029;-74
2022/05/04 12:56:51;;;;;;;1.73;1.25;;;;;;;;;;10443479;28;20539;-73
2022/05/04 13:01:51;;;;;;;3.23;1.77;;;;;;;;;;10443028;28;20035;-71
2022/05/04 13:06:52;;;;;;;2.10;1.80;;;;;;;;;;10443464;28;20021;-71
2022/05/04 13:11:52;;;;;;;3.85;1.60;;;;;;;;;;10426018;28;20794;-75
2022/05/04 13:16:52;;;;;;;3.75;1.33;;;;;;;;;;10436043;28;20013;-72
2022/05/04 13:21:52;;;;;;;1.83;1.63;;;;;;;;;;10441720;28;20132;-76
2022/05/04 13:26:53;;;;;;;3.80;1.90;;;;;;;;;;10442073;28;20087;-71
2022/05/04 13:31:53;;;;;;;7.55;1.98;;;;;;;;;;10428391;28;20039;-69
2022/05/04 13:36:54;;;;;;;4.28;1.85;;;;;;;;;;10408241;28;20083;-71
2022/05/04 13:41:54;;;;;;;4.10;2.03;;;;;;;;;;10451132;28;20031;-72
2022/05/04 13:46:55;;;;;;;7.90;2.70;;;;;;;;;;10416366;28;20013;-73
2022/05/04 13:57:15;;;;;;;7.88;1.65;;;;;;;;;;10449977;28;20025;-70
2022/05/04 14:02:15;;;;;;;3.65;2.33;;;;;;;;;;10432599;28;20419;-71
2022/05/04 14:07:16;;;;;;;10.10;2.37;;;;;;;;;;10445203;28;20307;-70
2022/05/04 14:12:16;;;;;;;2.63;1.43;;;;;;;;;;10456996;28;20465;-76
2022/05/04 14:17:16;;;;;;;3.80;1.73;;;;;;;;;;10442053;28;20263;-75
2022/05/04 14:22:17;;;;;;;5.28;1.90;;;;;;;;;;10443439;28;20045;-75
2022/05/04 14:27:17;;;;;;;3.53;2.00;;;;;;;;;;10440348;28;20029;-80
2022/05/04 14:32:17;;;;;;;3.30;1.53;;;;;;;;;;10430820;28;20313;-76
2022/05/04 14:37:18;;;;;;;3.03;1.53;;;;;;;;;;10453856;28;20021;-69
2022/05/04 14:42:18;;;;;;;7.15;1.90;;;;;;;;;;10446036;28;20482;-73
2022/05/04 14:47:18;;;;;;;5.07;2.00;;;;;;;;;;10445841;28;20021;-73
2022/05/04 14:52:19;;;;;;;2.40;1.80;;;;;;;;;;10435600;28;20854;-74
2022/05/04 14:57:20;;;;;;;2.58;1.73;;;;;;;;;;10446274;28;20428;-74
2022/05/04 15:02:20;;;;;;;2.75;1.90;;;;;;;;;;10444499;28;20017;-71
2022/05/04 15:07:20;;;;;;;3.50;1.65;;;;;;;;;;10393931;28;20029;-73
2022/05/04 15:12:21;;;;;;;5.60;2.25;;;;;;;;;;10405099;28;20117;-75
2022/05/04 15:17:21;;;;;;;2.90;1.50;;;;;;;;;;10403397;28;20032;-76
2022/05/04 15:22:21;;;;;;;4.83;2.07;;;;;;;;;;10386681;28;20052;-69
2022/05/04 15:27:22;;;;;;;3.15;1.92;;;;;;;;;;10424193;28;20066;-72
2022/05/04 15:32:22;;;;;;;11.67;2.57;;;;;;;;;;10444182;28;20037;-72
2022/05/04 15:37:23;;;;;;;2.08;1.60;;;;;;;;;;10442317;28;20512;-68
2022/05/04 15:42:24;;;;;;;5.03;2.88;;;;;;;;;;10426918;28;20028;-71
2022/05/04 15:47:24;;;;;;;17.40;2.47;;;;;;;;;;10426208;28;20032;-72
2022/05/04 15:52:24;;;;;;;5.18;2.88;;;;;;;;;;10444498;28;20021;-72
2022/05/04 15:57:25;;;;;;;3.78;2.03;;;;;;;;;;10443852;28;20033;-68
2022/05/04 16:07:45;;;;;;;5.25;2.42;;;;;;;;;;10443852;28;20044;-72
2022/05/04 16:12:45;;;;;;;8.82;2.60;;;;;;;;;;10398312;28;20129;-75
2022/05/04 16:23:05;;;;;;;5.57;2.63;;;;;;;;;;10431444;28;20040;-76
2022/05/04 16:28:05;;;;;;;4.95;3.10;;;;;;;;;;10406826;28;20432;-77
2022/05/04 16:33:06;;;;;;;6.35;3.28;;;;;;;;;;10412699;28;20586;-72
2022/05/04 16:38:06;;;;;;;7.30;2.75;;;;;;;;;;10408106;28;20021;-70
2022/05/04 16:43:08;;;;;;;5.90;3.37;;;;;;;;;;10403032;28;20025;-71
2022/05/04 16:48:08;;;;;;;8.00;4.03;;;;;;;;;;10407326;28;20099;-75
2022/05/04 16:53:12;;;;;;;6.13;2.07;;;;;;;;;;10404722;28;20021;-75
2022/05/04 16:58:12;;;;;;;6.13;3.33;;;;;;;;;;10402177;28;20121;-74
2022/05/04 17:03:12;;;;;;;5.43;3.67;;;;;;;;;;10408806;28;20028;-76
2022/05/04 17:08:13;;;;;;;8.70;5.47;;;;;;;;;;10405112;28;20099;-76
2022/05/04 17:13:13;;;;;;;7.82;4.95;;;;;;;;;;10402142;28;20580;-76
2022/05/04 17:18:13;;;;;;;16.02;5.30;;;;;;;;;;10411434;28;20022;-78
2022/05/04 17:23:14;;;;;;;5.67;3.83;;;;;;;;;;10412184;28;20053;-72
2022/05/04 17:28:14;;;;;;;3.05;2.28;;;;;;;;;;10423068;28;20140;-74
2022/05/04 17:38:35;;;;;;;2.53;2.13;;;;;;;;;;10423442;28;20052;-75
2022/05/04 17:43:38;;;;;;;5.25;1.45;;;;;;;;;;10432796;28;20029;-74
2022/05/04 17:48:39;;;;;;;3.28;1.88;;;;;;;;;;10430824;28;20025;-73
2022/05/04 17:53:39;;;;;;;5.78;1.50;;;;;;;;;;10447488;28;20013;-70
2022/05/04 17:58:39;;;;;;;3.78;2.13;;;;;;;;;;10432040;28;20021;-72
2022/05/04 18:03:40;;;;;;;6.72;1.98;;;;;;;;;;10413385;28;20095;-74
2022/05/04 18:08:41;;;;;;;5.70;2.13;;;;;;;;;;10411312;28;20018;-68
2022/05/04 18:13:41;;;;;;;2.85;2.40;;;;;;;;;;10417540;28;20021;-68
2022/05/04 18:18:41;;;;;;;6.35;2.58;;;;;;;;;;10442167;28;20040;-73
2022/05/04 18:23:41;;;;;;;6.72;2.35;;;;;;;;;;10418218;28;20057;-69
2022/05/04 18:28:42;;;;;;;3.58;1.95;;;;;;;;;;10433796;28;20021;-74
2022/05/04 18:33:42;;;;;;;6.70;1.92;;;;;;;;;;10446003;28;20033;-72
2022/05/04 18:38:42;;;;;;;4.23;1.50;;;;;;;;;;10439229;28;20107;-73
2022/05/04 18:43:43;;;;;;;2.13;1.40;;;;;;;;;;10414715;28;20508;-69
2022/05/04 18:48:45;;;;;;;2.75;1.90;;;;;;;;;;10411068;28;20047;-74
2022/05/04 18:53:45;;;;;;;7.05;2.15;;;;;;;;;;10411123;28;20017;-68
2022/05/04 18:58:46;;;;;;;4.50;2.77;;;;;;;;;;10422705;28;20463;-69
2022/05/04 19:03:47;;;;;;;3.78;2.30;;;;;;;;;;10419223;28;20029;-72
2022/05/04 19:08:48;;;;;;;4.63;1.85;;;;;;;;;;10426272;28;20017;-68
2022/05/04 19:13:48;;;;;;;5.57;2.53;;;;;;;;;;10422090;28;20469;-69
2022/05/04 19:18:48;;;;;;;4.47;2.17;;;;;;;;;;10427396;28;20021;-69
2022/05/04 19:23:49;;;;;;;3.20;2.37;;;;;;;;;;10408303;28;20037;-69
2022/05/04 19:28:49;;;;;;;4.45;2.85;;;;;;;;;;10416812;28;20017;-69
2022/05/04 19:33:50;;;;;;;8.05;4.28;;;;;;;;;;10398805;28;20439;-76
2022/05/04 19:38:52;;;;;;;7.50;2.83;;;;;;;;;;10405399;28;20017;-74
2022/05/04 19:43:53;;;;;;;4.85;2.88;;;;;;;;;;10413118;28;20287;-74
2022/05/04 19:48:53;;;;;;;4.25;2.72;;;;;;;;;;10441435;28;20036;-73
2022/05/04 19:53:53;;;;;;;4.83;2.90;;;;;;;;;;10427120;28;20021;-70
2022/05/04 19:58:53;;;;;;;5.03;3.00;;;;;;;;;;10436823;28;20020;-74
2022/05/04 20:03:54;;;;;;;5.28;2.83;;;;;;;;;;10425037;28;20138;-73
2022/05/04 20:08:54;;;;;;;5.13;3.08;;;;;;;;;;10441246;28;20017;-73
2022/05/04 20:13:54;;;;;;;3.03;2.47;;;;;;;;;;10424139;28;20086;-70
2022/05/04 20:18:55;;;;;;;3.65;2.72;;;;;;;;;;10424843;28;20260;-71
2022/05/04 20:23:55;;;;;;;4.30;2.70;;;;;;;;;;10431394;28;20037;-72
2022/05/04 20:28:55;;;;;;;5.13;3.03;;;;;;;;;;10442356;28;20083;-69
2022/05/04 20:33:56;;;;;;;3.75;2.90;;;;;;;;;;10444217;28;20025;-76
2022/05/04 20:39:00;;;;;;;3.95;2.47;;;;;;;;;;10428757;28;20443;-74
2022/05/04 20:44:00;;;;;;;3.17;2.35;;;;;;;;;;10442719;28;20045;-76
2022/05/04 20:49:04;;;;;;;4.38;3.13;;;;;;;;;;10422995;28;20104;-68
2022/05/04 20:54:05;;;;;;;3.25;2.05;;;;;;;;;;10440620;28;20431;-74
2022/05/04 20:59:07;;;;;;;2.95;2.33;;;;;;;;;;10408050;28;20017;-75
2022/05/04 21:04:08;;;;;;;3.92;2.55;;;;;;;;;;10440642;28;20431;-74
2022/05/04 21:09:09;;;;;;;5.07;3.45;;;;;;;;;;10440657;28;20028;-71
2022/05/04 21:14:10;;;;;;;4.85;3.80;;;;;;;;;;10440349;28;20056;-74
2022/05/04 21:19:12;;;;;;;5.07;3.67;;;;;;;;;;10442991;28;20116;-72
2022/05/04 21:24:12;;;;;;;5.13;3.65;;;;;;;;;;10439976;28;20055;-74
2022/05/04 21:29:12;;;;;;;6.83;3.80;;;;;;;;;;10439859;28;20024;-69
2022/05/04 21:34:13;;;;;;;6.03;3.63;;;;;;;;;;10439866;28;20575;-75
2022/05/04 21:39:13;;;;;;;7.57;3.97;;;;;;;;;;10422931;28;20524;-75
2022/05/04 21:44:15;;;;;;;10.43;6.40;;;;;;;;;;10440347;28;20550;-74
2022/05/04 21:49:15;;;;;;;10.68;5.82;;;;;;;;;;10440691;28;20318;-72
2022/05/04 21:54:16;;;;;;;20.20;12.20;;;;;;;;;;10432968;28;20044;-75
2022/05/04 21:59:17;;;;;;;35.38;18.25;;;;;;;;;;10445075;28;20036;-70
2022/05/04 22:04:17;;;;;;;36.58;19.08;;;;;;;;;;10447079;28;20017;-69
2022/05/04 22:09:18;;;;;;;32.13;19.23;;;;;;;;;;10446335;28;20415;-70
2022/05/04 22:14:18;;;;;;;28.33;16.80;;;;;;;;;;10447858;28;20037;-70
2022/05/04 22:19:18;;;;;;;37.75;21.17;;;;;;;;;;10446757;28;20044;-72
2022/05/04 22:24:19;;;;;;;33.67;20.52;;;;;;;;;;10447154;28;20577;-73
2022/05/04 22:29:20;;;;;;;33.60;17.98;;;;;;;;;;10430879;28;20488;-73
2022/05/04 22:34:20;;;;;;;39.13;19.85;;;;;;;;;;10430761;28;20033;-72
2022/05/04 22:39:20;;;;;;;30.93;17.80;;;;;;;;;;10413446;28;20024;-73
2022/05/04 22:44:20;;;;;;;32.63;18.23;;;;;;;;;;10481128;28;20022;-74
2022/05/04 22:49:21;;;;;;;33.33;17.63;;;;;;;;;;10471038;28;20020;-75
2022/05/04 22:54:21;;;;;;;31.92;16.67;;;;;;;;;;10470569;28;20027;-75
2022/05/04 22:59:22;;;;;;;24.80;16.27;;;;;;;;;;10470782;28;20016;-72
2022/05/04 23:04:22;;;;;;;22.57;13.43;;;;;;;;;;10447014;28;20932;-73
2022/05/04 23:09:23;;;;;;;26.70;14.55;;;;;;;;;;10428265;28;20325;-74
2022/05/04 23:14:23;;;;;;;25.60;14.48;;;;;;;;;;10428604;28;20111;-70
2022/05/04 23:19:23;;;;;;;27.30;15.87;;;;;;;;;;10428760;28;20446;-75
2022/05/04 23:24:24;;;;;;;24.08;13.95;;;;;;;;;;10429673;28;20045;-73
2022/05/04 23:29:28;;;;;;;26.33;14.10;;;;;;;;;;10445785;28;20033;-74
2022/05/04 23:34:28;;;;;;;25.58;13.63;;;;;;;;;;10446225;28;20021;-75
2022/05/04 23:39:30;;;;;;;24.45;12.75;;;;;;;;;;10444280;28;20029;-75
2022/05/04 23:44:30;;;;;;;20.27;12.93;;;;;;;;;;10443645;28;20352;-75
2022/05/04 23:49:31;;;;;;;25.03;13.80;;;;;;;;;;10444807;28;20112;-72
2022/05/04 23:54:31;;;;;;;20.25;12.07;;;;;;;;;;10444839;28;20393;-73
2022/05/04 23:59:31;;;;;;;18.95;11.88;;;;;;;;;;10443631;28;20013;-75
